Time;durP1;ratioP1;P1;durP2;ratioP2;P2;SDS_P1;SDS_P2;PMS_P1;PMS_P2;Temp;Humidity;BMP_temperature;BMP_pressure;BME280_temperature;BME280_humidity;BME280_pressure;Samples;Min_cycle;Max_cycle;Signal;HPM_P1;HPM_P2
2023/10/27 00:00:57;;;;;;;0.95;0.95;;;;;;;12.34;95.70;95999.06;5006198;28;20493;-56
2023/10/27 00:03:24;;;;;;;1.00;1.00;;;;;;;12.96;95.27;96089.50;5024092;28;20056;-55
2023/10/27 00:05:51;;;;;;;1.00;1.00;;;;;;;12.67;94.93;96052.03;5006198;28;20325;-55
2023/10/27 00:08:18;;;;;;;1.10;1.10;;;;;;;12.99;95.76;96096.25;5024168;28;20073;-55
2023/10/27 00:10:44;;;;;;;1.05;1.05;;;;;;;12.58;96.34;96054.47;5027862;28;20053;-56
2023/10/27 00:13:11;;;;;;;1.00;1.00;;;;;;;12.82;96.81;96070.16;5028160;28;20132;-55
2023/10/27 00:15:38;;;;;;;0.93;0.93;;;;;;;13.07;96.22;96093.03;5010103;28;20515;-55
2023/10/27 00:18:05;;;;;;;1.10;1.10;;;;;;;13.11;95.58;96088.25;5027692;28;20127;-55
2023/10/27 00:20:32;;;;;;;1.00;1.00;;;;;;;12.55;95.87;95996.16;5027834;28;20530;-57
2023/10/27 00:22:59;;;;;;;1.00;1.00;;;;;;;12.95;96.38;96074.03;5028014;28;20059;-56
2023/10/27 00:25:26;;;;;;;1.00;1.00;;;;;;;12.83;97.31;96070.97;5027403;28;20064;-56
2023/10/27 00:27:53;;;;;;;1.00;1.00;;;;;;;12.75;96.34;96050.78;5027986;28;20041;-55
2023/10/27 00:30:20;;;;;;;1.10;1.10;;;;;;;12.90;95.32;96063.34;5027692;28;20416;-56
2023/10/27 00:32:47;;;;;;;1.10;1.10;;;;;;;12.89;95.18;96059.00;5027902;28;20055;-56
2023/10/27 00:35:14;;;;;;;1.00;1.00;;;;;;;12.89;96.10;96059.00;5027763;28;20048;-55
2023/10/27 00:37:41;;;;;;;0.98;0.98;;;;;;;12.94;95.99;96069.69;5027286;28;20045;-57
2023/10/27 00:40:08;;;;;;;1.10;1.10;;;;;;;12.72;97.55;96059.94;5027601;28;20049;-55
2023/10/27 00:42:35;;;;;;;1.00;1.00;;;;;;;12.39;99.32;96018.09;5027574;28;20237;-55
2023/10/27 00:45:02;;;;;;;1.00;1.00;;;;;;;12.64;99.77;96047.28;5009628;28;20056;-55
2023/10/27 00:47:30;;;;;;;0.90;0.90;;;;;;;12.57;100.00;96041.75;5028006;28;20058;-56
2023/10/27 00:49:58;;;;;;;1.00;1.00;;;;;;;12.82;98.99;96047.94;5027150;28;20084;-54
2023/10/27 00:52:26;;;;;;;1.00;1.00;;;;;;;12.89;98.20;96047.88;5027270;28;20041;-55
2023/10/27 00:54:54;;;;;;;1.00;1.00;;;;;;;13.00;98.12;96045.84;5027161;28;20049;-56
2023/10/27 00:57:27;;;;;;;1.00;1.00;;;;;;;12.74;96.82;96009.50;5027024;28;20060;-55
2023/10/27 00:59:54;;;;;;;1.20;1.20;;;;;;;12.87;96.18;96058.59;5027039;28;20061;-55
2023/10/27 01:02:21;;;;;;;1.10;1.10;;;;;;;12.76;93.69;96048.75;5027200;28;20042;-55
2023/10/27 01:04:49;;;;;;;0.90;0.90;;;;;;;12.73;94.29;96063.47;5027233;28;20049;-56
2023/10/27 01:07:16;;;;;;;1.10;1.10;;;;;;;12.68;94.65;96047.22;5027042;28;20531;-57
2023/10/27 01:09:43;;;;;;;1.05;1.05;;;;;;;12.58;94.50;96029.47;5009072;28;20132;-54
2023/10/27 01:12:11;;;;;;;1.10;1.10;;;;;;;12.74;96.01;96063.06;5027225;28;20103;-55
2023/10/27 01:14:38;;;;;;;0.90;0.90;;;;;;;12.81;96.50;96071.38;5027087;28;20060;-55
2023/10/27 01:17:05;;;;;;;1.00;1.00;;;;;;;12.66;96.69;96022.63;5027321;28;20053;-56
2023/10/27 01:19:32;;;;;;;1.00;1.00;;;;;;;13.00;96.67;96065.28;5027119;28;20119;-56
2023/10/27 01:21:59;;;;;;;1.00;1.00;;;;;;;12.97;97.14;96060.53;5027390;28;20111;-55
2023/10/27 01:24:27;;;;;;;1.10;1.10;;;;;;;12.83;96.36;96018.94;5009129;28;20056;-57
2023/10/27 01:26:55;;;;;;;1.02;1.02;;;;;;;13.25;95.53;96054.75;5026551;28;20060;-55
2023/10/27 01:29:27;;;;;;;1.05;1.05;;;;;;;13.40;94.47;96053.38;5026389;28;20136;-57
2023/10/27 01:31:55;;;;;;;1.10;1.10;;;;;;;13.48;94.61;96041.00;5027003;28;20559;-55
2023/10/27 01:34:22;;;;;;;1.10;1.10;;;;;;;13.57;94.44;96044.09;5026968;28;20057;-55
2023/10/27 01:36:49;;;;;;;1.10;1.10;;;;;;;13.56;94.18;96036.94;5008953;28;20111;-56
2023/10/27 01:39:16;;;;;;;1.05;1.05;;;;;;;13.53;93.40;96048.13;5026071;28;20065;-55
2023/10/27 01:41:43;;;;;;;1.10;1.10;;;;;;;13.61;92.94;96050.41;5026445;28;20580;-55
2023/10/27 01:44:09;;;;;;;1.10;1.10;;;;;;;13.54;92.05;96017.09;5026373;28;20071;-56
2023/10/27 01:46:36;;;;;;;1.10;1.10;;;;;;;13.79;92.23;96049.41;5026184;28;20080;-55
2023/10/27 01:49:03;;;;;;;1.10;1.10;;;;;;;13.83;92.19;96056.50;5026381;28;20112;-55
2023/10/27 01:51:30;;;;;;;1.08;1.08;;;;;;;13.82;92.14;96059.69;5026316;28;20862;-55
2023/10/27 01:53:57;;;;;;;1.20;1.20;;;;;;;13.89;92.16;96052.09;5025982;28;20049;-56
2023/10/27 01:56:24;;;;;;;1.17;1.17;;;;;;;13.65;92.47;96056.72;5026297;28;20484;-56
2023/10/27 01:58:50;;;;;;;1.00;1.00;;;;;;;13.46;92.98;96050.97;5026379;28;20057;-55
2023/10/27 02:01:18;;;;;;;1.00;1.00;;;;;;;13.50;92.78;96043.34;5026128;28;20049;-55
2023/10/27 02:03:45;;;;;;;0.93;0.93;;;;;;;13.43;93.99;96035.91;5026065;28;20525;-55
2023/10/27 02:06:12;;;;;;;1.00;1.00;;;;;;;13.20;93.91;96044.06;5026339;28;20083;-55
2023/10/27 02:08:38;;;;;;;1.10;1.10;;;;;;;13.36;94.13;96046.28;5025706;28;20049;-56
2023/10/27 02:11:05;;;;;;;1.08;1.08;;;;;;;13.20;93.26;96007.09;5007879;28;20136;-57
2023/10/27 02:13:32;;;;;;;1.08;1.08;;;;;;;13.15;91.96;95966.63;5026118;28;20049;-56
2023/10/27 02:15:59;;;;;;;1.00;1.00;;;;;;;13.33;92.11;96006.19;5025936;28;20428;-55
2023/10/27 02:18:26;;;;;;;1.00;1.00;;;;;;;13.49;91.24;96045.38;5025302;28;20049;-55
2023/10/27 02:20:52;;;;;;;1.08;1.08;;;;;;;13.13;92.50;96013.56;5025750;28;20049;-55
2023/10/27 02:23:19;;;;;;;1.10;1.10;;;;;;;13.34;92.30;96046.69;5025815;28;20061;-55
2023/10/27 02:25:46;;;;;;;1.00;1.00;;;;;;;13.44;92.44;96056.94;5007264;28;20523;-55
2023/10/27 02:28:13;;;;;;;1.00;1.00;;;;;;;13.57;91.83;96060.78;5025979;28;20057;-55
2023/10/27 02:30:39;;;;;;;1.02;1.02;;;;;;;13.58;91.59;96048.44;5007524;28;20056;-55
2023/10/27 02:33:06;;;;;;;1.00;1.00;;;;;;;13.76;91.04;96053.00;5025426;28;20041;-56
2023/10/27 02:35:33;;;;;;;1.05;1.05;;;;;;;13.67;90.87;96040.38;5025469;28;20065;-57
2023/10/27 02:38:00;;;;;;;1.13;1.13;;;;;;;13.84;90.77;96049.75;5025680;28;20045;-55
2023/10/27 02:40:27;;;;;;;1.15;1.15;;;;;;;13.88;90.78;96052.50;5017258;28;20061;-56
2023/10/27 02:42:53;;;;;;;1.25;1.25;;;;;;;13.24;90.47;95966.97;5005402;28;20439;-57
2023/10/27 02:45:21;;;;;;;1.05;1.05;;;;;;;13.72;90.57;96052.28;4983479;28;20172;-56
2023/10/27 02:47:48;;;;;;;1.10;1.10;;;;;;;13.14;92.94;96042.94;5004408;28;20248;-56
2023/10/27 02:50:15;;;;;;;1.00;1.00;;;;;;;12.97;95.29;96049.41;5005262;28;20107;-55
2023/10/27 02:52:42;;;;;;;0.90;0.90;;;;;;;12.97;95.34;96043.03;4987682;28;20046;-57
2023/10/27 02:55:09;;;;;;;1.10;1.10;;;;;;;13.12;95.07;96050.88;5005477;28;20061;-56
2023/10/27 02:57:36;;;;;;;1.00;1.00;;;;;;;13.11;95.31;96049.31;5005326;28;20112;-55
2023/10/27 03:00:06;;;;;;;1.00;1.00;;;;;;;13.15;94.53;96027.03;5005036;28;20129;-55
2023/10/27 03:02:33;;;;;;;1.10;1.10;;;;;;;13.18;94.35;96052.00;5004198;28;20559;-56
2023/10/27 03:05:00;;;;;;;1.20;1.20;;;;;;;13.20;94.56;96041.28;5004738;28;20049;-55
2023/10/27 03:07:26;;;;;;;1.10;1.10;;;;;;;13.32;94.29;96037.19;5004047;28;20104;-56
2023/10/27 03:09:53;;;;;;;1.10;1.10;;;;;;;13.41;93.78;96035.50;5015980;28;20053;-55
2023/10/27 03:12:20;;;;;;;1.10;1.10;;;;;;;13.49;92.90;96036.22;5024699;28;20128;-55
2023/10/27 03:14:47;;;;;;;1.10;1.10;;;;;;;13.51;92.71;96040.16;5024162;28;20535;-55
2023/10/27 03:17:15;;;;;;;1.10;1.10;;;;;;;13.58;92.34;96048.44;5025158;28;20084;-56
2023/10/27 03:19:41;;;;;;;1.10;1.10;;;;;;;13.66;91.58;96049.94;5024854;28;20061;-56
2023/10/27 03:22:09;;;;;;;1.02;1.02;;;;;;;13.68;91.69;96044.75;5024904;28;20065;-55
2023/10/27 03:24:35;;;;;;;1.08;1.08;;;;;;;13.59;92.65;96030.53;5024622;28;20057;-55
2023/10/27 03:27:02;;;;;;;1.00;1.00;;;;;;;13.32;92.68;95990.72;5024278;28;20061;-56
2023/10/27 03:29:29;;;;;;;1.10;1.10;;;;;;;13.46;90.71;95993.34;5024285;28;20143;-55
2023/10/27 03:31:56;;;;;;;1.10;1.10;;;;;;;13.65;91.26;96040.03;5024052;28;20048;-55
2023/10/27 03:34:22;;;;;;;1.13;1.13;;;;;;;13.69;91.97;96051.91;5024170;28;20092;-56
2023/10/27 03:36:49;;;;;;;1.05;1.05;;;;;;;13.70;91.97;96041.56;5006236;28;20053;-58
2023/10/27 03:39:16;;;;;;;1.10;1.10;;;;;;;13.62;92.29;96040.06;5024164;28;20053;-56
2023/10/27 03:41:43;;;;;;;1.00;1.00;;;;;;;13.42;93.04;96045.44;5024294;28;20123;-56
2023/10/27 03:44:10;;;;;;;1.00;1.00;;;;;;;10.24;96.58;95630.38;5023142;28;20495;-55
2023/10/27 03:46:37;;;;;;;1.00;1.00;;;;;;;12.57;98.07;95994.53;5006433;28;20056;-56
2023/10/27 03:49:04;;;;;;;1.00;1.00;;;;;;;12.88;98.22;96040.72;5024081;28;20046;-56
2023/10/27 03:51:32;;;;;;;1.15;1.15;;;;;;;12.75;98.13;96047.19;5024528;28;20138;-55
2023/10/27 03:53:59;;;;;;;1.10;1.10;;;;;;;12.68;97.55;95966.66;5024200;28;20066;-55
2023/10/27 03:56:26;;;;;;;0.90;0.90;;;;;;;12.64;98.11;95955.59;5024471;28;20050;-56
2023/10/27 03:58:52;;;;;;;0.90;0.90;;;;;;;13.12;99.29;96036.22;5024384;28;20053;-57
2023/10/27 04:01:20;;;;;;;1.00;1.00;;;;;;;13.38;97.92;96036.34;5006593;28;20065;-56
2023/10/27 04:03:47;;;;;;;1.13;1.13;;;;;;;13.49;97.28;96030.66;5024550;28;20050;-56
2023/10/27 04:06:13;;;;;;;1.00;1.00;;;;;;;13.48;97.43;96024.28;5024311;28;20049;-55
2023/10/27 04:08:40;;;;;;;1.10;1.10;;;;;;;13.38;98.81;96025.22;5023900;28;20089;-56
2023/10/27 04:11:07;;;;;;;1.17;1.17;;;;;;;13.62;97.13;96013.00;5006112;28;20452;-55
2023/10/27 04:13:34;;;;;;;1.10;1.10;;;;;;;13.68;96.13;96022.50;5023850;28;20050;-56
2023/10/27 04:16:01;;;;;;;1.10;1.10;;;;;;;13.78;95.64;96020.00;5023795;28;20156;-56
2023/10/27 04:18:28;;;;;;;1.20;1.20;;;;;;;13.61;95.78;95983.63;5024102;28;20068;-56
2023/10/27 04:20:55;;;;;;;1.10;1.10;;;;;;;13.84;96.55;96008.00;5023960;28;20123;-55
2023/10/27 04:23:22;;;;;;;1.00;1.00;;;;;;;13.92;96.09;96008.69;5023556;28;20054;-55
2023/10/27 04:25:51;;;;;;;1.00;1.00;;;;;;;13.97;95.74;96005.44;5023429;28;20421;-58
2023/10/27 04:28:18;;;;;;;1.10;1.10;;;;;;;14.04;95.85;96010.91;5006262;28;20049;-55
2023/10/27 04:30:48;;;;;;;1.10;1.10;;;;;;;14.12;95.79;96006.81;5006324;28;20140;-55
2023/10/27 04:33:15;;;;;;;1.10;1.10;;;;;;;13.57;95.91;95927.22;5023679;28;20115;-55
2023/10/27 04:35:43;;;;;;;1.10;1.10;;;;;;;14.23;95.80;96013.03;5023490;28;20568;-55
2023/10/27 04:38:09;;;;;;;1.20;1.20;;;;;;;14.23;95.31;96015.81;5023554;28;20060;-56
2023/10/27 04:40:37;;;;;;;1.20;1.20;;;;;;;13.76;95.48;95973.09;5023512;28;20465;-55
2023/10/27 04:43:04;;;;;;;1.10;1.10;;;;;;;13.98;95.67;96018.16;5023780;28;20191;-55
2023/10/27 04:45:31;;;;;;;1.10;1.10;;;;;;;13.99;94.31;96020.53;5023349;28;20046;-55
2023/10/27 04:47:58;;;;;;;1.10;1.10;;;;;;;13.98;93.75;96020.94;5024366;28;20053;-57
2023/10/27 04:50:25;;;;;;;1.20;1.20;;;;;;;13.96;93.32;96032.50;5028114;28;20041;-56
2023/10/27 04:52:52;;;;;;;1.00;1.00;;;;;;;13.82;94.49;96020.72;5003387;28;20610;-57
2023/10/27 04:55:19;;;;;;;1.17;1.17;;;;;;;13.70;95.08;96008.94;5013075;28;20052;-58
2023/10/27 04:57:45;;;;;;;1.20;1.20;;;;;;;13.85;95.00;96026.25;5007339;28;20045;-57
2023/10/27 05:00:13;;;;;;;0.90;0.90;;;;;;;13.88;95.26;96033.00;5006200;28;20057;-56
2023/10/27 05:02:40;;;;;;;1.10;1.10;;;;;;;13.57;95.38;95994.00;5007672;28;20054;-56
2023/10/27 05:05:08;;;;;;;1.00;1.00;;;;;;;13.94;95.42;96028.56;4989867;28;20084;-56
2023/10/27 05:07:36;;;;;;;1.25;1.25;;;;;;;13.96;95.64;96026.16;5006142;28;20049;-55
2023/10/27 05:10:07;;;;;;;1.27;1.27;;;;;;;13.73;95.88;95967.56;5018678;28;20046;-56
2023/10/27 05:12:37;;;;;;;1.08;1.08;;;;;;;14.13;95.20;96020.31;5025187;28;20084;-55
2023/10/27 05:15:05;;;;;;;1.17;1.17;;;;;;;14.15;94.16;96028.25;5026255;28;20657;-54
2023/10/27 05:17:35;;;;;;;1.02;1.02;;;;;;;13.83;96.47;96027.91;5026428;28;20540;-58
2023/10/27 05:20:04;;;;;;;1.05;1.05;;;;;;;13.87;97.68;96028.63;5026328;28;20496;-56
2023/10/27 05:22:32;;;;;;;1.10;1.10;;;;;;;13.96;95.63;96037.28;5027027;28;20136;-56
2023/10/27 05:25:03;;;;;;;1.17;1.17;;;;;;;14.04;94.94;96035.97;5026248;28;20061;-55
2023/10/27 05:27:30;;;;;;;1.10;1.10;;;;;;;13.90;93.63;95988.81;5026425;28;20551;-55
2023/10/27 05:29:57;;;;;;;1.20;1.20;;;;;;;14.20;93.77;96030.59;5025802;28;20077;-58
2023/10/27 05:32:24;;;;;;;1.10;1.10;;;;;;;14.35;93.51;96026.44;5025450;28;20081;-55
2023/10/27 05:34:51;;;;;;;1.27;1.27;;;;;;;14.50;93.16;96027.81;5025124;28;20128;-55
2023/10/27 05:37:20;;;;;;;1.00;1.00;;;;;;;14.09;91.12;95974.25;5007950;28;20042;-54
2023/10/27 05:39:48;;;;;;;1.40;1.40;;;;;;;14.62;90.77;96041.19;5025274;28;20060;-55
2023/10/27 05:42:14;;;;;;;1.20;1.20;;;;;;;14.65;89.74;96029.19;5025966;28;20068;-56
2023/10/27 05:44:41;;;;;;;1.17;1.17;;;;;;;14.66;89.53;96041.91;5025848;28;20049;-56
2023/10/27 05:47:08;;;;;;;1.30;1.30;;;;;;;14.52;90.10;96026.19;5025955;28;20064;-58
2023/10/27 05:49:34;;;;;;;1.35;1.35;;;;;;;14.37;91.17;95996.19;5026359;28;20533;-55
2023/10/27 05:52:03;;;;;;;1.20;1.20;;;;;;;14.42;91.33;95976.19;5022590;28;20049;-57
2023/10/27 05:54:30;;;;;;;1.30;1.30;;;;;;;15.06;91.59;96046.47;5018669;28;20114;-69
2023/10/27 05:56:57;;;;;;;1.20;1.20;;;;;;;15.25;90.09;96051.31;5015802;28;20132;-55
2023/10/27 05:59:24;;;;;;;1.10;1.10;;;;;;;15.49;89.44;96050.09;5024812;28;20061;-67
2023/10/27 06:01:53;;;;;;;1.20;1.20;;;;;;;15.40;88.34;95980.13;4990256;28;20046;-73
2023/10/27 06:04:40;;;;;;;1.40;1.40;;;;;;;15.85;85.10;96050.25;4963128;28;20065;-60
2023/10/27 06:07:07;;;;;;;1.50;1.50;;;;;;;16.13;85.17;96056.06;4977814;28;20047;-55
2023/10/27 06:09:35;;;;;;;1.50;1.50;;;;;;;16.39;83.10;96063.47;4979142;28;20072;-58
2023/10/27 06:12:03;;;;;;;1.40;1.40;;;;;;;16.23;83.25;96060.63;4980492;28;20602;-67
2023/10/27 06:14:30;;;;;;;1.40;1.40;;;;;;;16.21;84.18;96068.66;4981639;28;20049;-56
2023/10/27 06:16:56;;;;;;;1.52;1.52;;;;;;;16.28;83.76;96085.28;4977327;28;20038;-73
2023/10/27 06:19:24;;;;;;;1.50;1.50;;;;;;;16.59;83.66;96067.06;4980635;28;20111;-55
2023/10/27 06:21:58;;;;;;;1.60;1.60;;;;;;;16.85;83.04;96064.50;4979139;28;20072;-56
2023/10/27 06:24:25;;;;;;;1.65;1.65;;;;;;;16.76;82.29;95994.38;4954299;28;20154;-73
2023/10/27 06:26:52;;;;;;;1.70;1.70;;;;;;;16.87;81.15;95975.31;4979638;28;20243;-63
2023/10/27 06:29:19;;;;;;;1.60;1.60;;;;;;;17.57;79.96;96051.94;4981597;28;20050;-58
2023/10/27 06:31:45;;;;;;;1.70;1.70;;;;;;;17.59;78.20;96032.69;4957251;28;20053;-61
2023/10/27 06:34:12;;;;;;;1.75;1.75;;;;;;;17.89;78.05;96046.28;4961450;28;20065;-74
2023/10/27 06:36:39;;;;;;;1.70;1.70;;;;;;;18.10;76.10;96045.66;4963636;28;20053;-52
2023/10/27 06:39:06;;;;;;;1.70;1.70;;;;;;;18.16;75.93;96043.91;4951820;28;20439;-57
2023/10/27 06:41:32;;;;;;;1.83;1.83;;;;;;;18.45;75.94;96027.06;4979941;28;20107;-65
2023/10/27 06:44:00;;;;;;;1.95;1.95;;;;;;;18.66;74.07;96021.59;4960429;28;20499;-55
2023/10/27 06:46:27;;;;;;;1.80;1.80;;;;;;;18.85;73.87;96029.00;4964446;28;20048;-65
2023/10/27 06:48:53;;;;;;;2.20;2.20;;;;;;;18.55;73.05;95959.44;4975687;28;20137;-63
2023/10/27 06:51:20;;;;;;;1.80;1.80;;;;;;;18.83;72.14;96008.22;4963669;28;20072;-54
2023/10/27 06:53:47;;;;;;;1.63;1.63;;;;;;;19.24;71.28;96017.31;4972146;28;20234;-57
2023/10/27 06:56:14;;;;;;;1.88;1.88;;;;;;;19.35;71.17;96028.19;4965045;28;20049;-77
2023/10/27 06:58:41;;;;;;;1.63;1.63;;;;;;;19.01;71.06;95963.56;4980969;28;20250;-56
2023/10/27 07:01:09;;;;;;;2.03;2.03;;;;;;;19.58;70.79;96008.16;4976766;28;20069;-56
2023/10/27 07:03:37;;;;;;;2.00;2.00;;;;;;;19.94;68.42;96016.13;4969794;28;20144;-55
2023/10/27 07:06:04;;;;;;;1.90;1.90;;;;;;;19.62;68.21;95957.47;4960054;28;20050;-58
2023/10/27 07:08:31;;;;;;;2.00;2.00;;;;;;;20.22;67.47;96027.16;4959437;28;20137;-76
2023/10/27 07:10:58;;;;;;;2.17;2.17;;;;;;;19.67;66.37;95959.69;4967695;28;20344;-61
2023/10/27 07:13:27;;;;;;;1.80;1.80;;;;;;;19.91;65.94;95972.06;4977546;28;20056;-58
2023/10/27 07:15:54;;;;;;;1.90;1.90;;;;;;;20.38;65.90;96034.59;4976000;28;20560;-60
2023/10/27 07:18:22;;;;;;;1.90;1.90;;;;;;;19.93;66.13;95967.56;4978569;28;21040;-69
2023/10/27 07:20:56;;;;;;;1.90;1.90;;;;;;;20.44;65.88;96018.69;4978252;28;20045;-56
2023/10/27 07:23:23;;;;;;;2.00;2.00;;;;;;;20.15;66.75;96013.38;4961201;28;20903;-61
2023/10/27 07:25:50;;;;;;;1.88;1.88;;;;;;;20.36;66.80;95997.72;4978404;28;20207;-64
2023/10/27 07:28:17;;;;;;;2.08;2.08;;;;;;;19.62;68.15;95940.63;4987650;28;20045;-70
2023/10/27 07:30:44;;;;;;;2.22;2.22;;;;;;;20.20;69.39;96014.78;4977612;28;20056;-67
2023/10/27 07:33:11;;;;;;;1.85;1.85;;;;;;;19.76;69.95;95959.78;4965343;28;20056;-69
2023/10/27 07:35:38;;;;;;;1.90;1.90;;;;;;;20.41;68.66;95985.84;4961576;28;20872;-70
2023/10/27 07:38:05;;;;;;;2.30;2.30;;;;;;;20.77;67.89;95997.31;4989908;28;20085;-69
2023/10/27 07:40:34;;;;;;;2.13;2.13;;;;;;;20.63;66.88;95966.91;4967509;28;20067;-60
2023/10/27 07:43:01;;;;;;;1.90;1.90;;;;;;;20.96;65.45;96018.69;4968908;28;20499;-56
2023/10/27 07:45:28;;;;;;;2.17;2.17;;;;;;;20.38;65.61;95914.44;4976621;28;20128;-57
2023/10/27 07:47:55;;;;;;;2.05;2.05;;;;;;;18.90;67.19;95750.63;4975053;28;20053;-63
2023/10/27 07:50:22;;;;;;;2.08;2.08;;;;;;;17.79;66.63;95571.13;4979396;28;20057;-58
2023/10/27 07:52:48;;;;;;;2.05;2.05;;;;;;;21.15;65.57;95978.06;4981755;28;20063;-57
2023/10/27 07:55:15;;;;;;;2.00;2.00;;;;;;;21.41;64.14;95985.03;4981640;28;20049;-63
2023/10/27 07:57:42;;;;;;;2.30;2.28;;;;;;;21.46;64.24;95986.44;4978994;28;20165;-56
2023/10/27 08:00:12;;;;;;;2.08;2.08;;;;;;;21.28;65.03;95973.09;4957323;28;20059;-58
2023/10/27 08:02:38;;;;;;;2.30;2.30;;;;;;;21.06;66.68;95986.50;4976515;28;20061;-68
2023/10/27 08:05:09;;;;;;;2.60;2.50;;;;;;;20.02;68.69;95927.47;4979215;28;20103;-69
2023/10/27 08:07:37;;;;;;;1.85;1.85;;;;;;;20.13;70.59;95975.66;4976441;28;20595;-71
2023/10/27 08:10:07;;;;;;;2.28;2.28;;;;;;;20.39;68.42;95948.97;4960455;28;21099;-63
2023/10/27 08:12:35;;;;;;;2.08;2.08;;;;;;;20.49;68.12;96018.88;4976808;28;20058;-71
2023/10/27 08:15:05;;;;;;;2.10;2.10;;;;;;;19.91;67.32;95873.69;4950727;28;20061;-60
2023/10/27 08:17:36;;;;;;;2.28;2.28;;;;;;;19.97;70.05;95967.41;4961562;28;20062;-65
2023/10/27 08:20:04;;;;;;;1.75;1.75;;;;;;;19.54;71.18;95952.09;4996162;28;20048;-68
2023/10/27 08:22:32;;;;;;;2.08;2.08;;;;;;;19.97;71.13;95967.41;4982928;28;20174;-72
2023/10/27 08:25:00;;;;;;;1.90;1.90;;;;;;;19.46;70.00;95885.38;4978900;28;20802;-75
2023/10/27 08:27:26;;;;;;;1.80;1.80;;;;;;;20.34;70.88;95974.88;4965993;28;20600;-68
2023/10/27 08:29:57;;;;;;;2.05;2.05;;;;;;;20.65;69.82;95968.03;4961792;28;20105;-59
2023/10/27 08:32:23;;;;;;;2.10;2.10;;;;;;;21.02;68.84;95977.44;4955843;28;20319;-67
2023/10/27 08:34:50;;;;;;;2.40;2.35;;;;;;;21.62;66.68;95984.13;4984097;28;20049;-59
2023/10/27 08:37:17;;;;;;;2.20;2.20;;;;;;;21.68;63.39;95976.63;4983932;28;20152;-67
2023/10/27 08:39:45;;;;;;;2.50;2.40;;;;;;;21.79;63.25;95982.59;4967202;28;20057;-60
2023/10/27 08:42:12;;;;;;;2.30;2.25;;;;;;;21.75;62.60;95934.03;4979223;28;21185;-59
2023/10/27 08:44:41;;;;;;;2.47;2.38;;;;;;;22.28;61.06;95980.38;4962338;28;21095;-71
2023/10/27 08:47:09;;;;;;;2.30;2.30;;;;;;;22.25;59.05;95975.69;4977392;28;20550;-58
2023/10/27 08:49:36;;;;;;;2.28;2.28;;;;;;;22.72;59.06;95963.81;4978373;28;20379;-61
2023/10/27 08:52:04;;;;;;;2.90;2.80;;;;;;;20.85;57.62;95643.88;4976838;28;20041;-79
2023/10/27 08:54:31;;;;;;;2.50;2.40;;;;;;;22.94;58.22;95901.44;4971289;28;20575;-73
2023/10/27 08:56:58;;;;;;;2.65;2.55;;;;;;;23.29;56.04;95927.94;4970422;28;20322;-64
2023/10/27 08:59:24;;;;;;;2.90;2.80;;;;;;;23.89;55.56;95956.72;4979854;28;20152;-63
2023/10/27 09:01:53;;;;;;;3.00;2.90;;;;;;;23.67;55.13;95908.19;4958428;28;20195;-57
2023/10/27 09:04:23;;;;;;;3.03;2.92;;;;;;;23.96;53.99;95874.31;4981053;28;20054;-60
2023/10/27 09:06:51;;;;;;;2.90;2.80;;;;;;;23.65;53.69;95854.94;4977496;28;20134;-57
2023/10/27 09:09:18;;;;;;;3.00;2.90;;;;;;;22.56;53.97;95751.72;4980425;28;20666;-69
2023/10/27 09:11:48;;;;;;;3.20;3.10;;;;;;;23.85;54.04;95927.84;4988226;28;20054;-62
2023/10/27 09:14:22;;;;;;;2.80;2.70;;;;;;;24.33;53.71;95920.78;4967278;28;20183;-64
2023/10/27 09:16:51;;;;;;;3.13;3.03;;;;;;;24.37;52.24;95853.44;4954651;28;20591;-70
2023/10/27 09:19:27;;;;;;;3.08;2.97;;;;;;;24.80;51.64;95903.59;4976507;28;20719;-65
2023/10/27 09:21:54;;;;;;;2.90;2.80;;;;;;;23.55;54.29;95884.56;4961112;28;20048;-67
2023/10/27 09:24:30;;;;;;;2.97;2.88;;;;;;;24.00;53.45;95872.09;4971005;28;21103;-60
2023/10/27 09:26:59;;;;;;;2.85;2.75;;;;;;;24.64;52.25;95889.94;4995014;28;20057;-70
2023/10/27 09:29:32;;;;;;;3.15;3.05;;;;;;;24.55;50.82;95836.22;4980837;28;20081;-74
2023/10/27 09:31:59;;;;;;;3.25;3.15;;;;;;;25.05;50.76;95907.84;4974165;28;20551;-57
2023/10/27 09:34:26;;;;;;;3.50;3.40;;;;;;;24.65;50.90;95846.16;4971372;28;20049;-57
2023/10/27 09:36:59;;;;;;;3.35;3.25;;;;;;;25.01;51.28;95888.22;4973618;28;20045;-56
2023/10/27 09:39:26;;;;;;;3.50;3.40;;;;;;;24.78;50.60;95838.16;4981734;28;20056;-66
2023/10/27 09:42:03;;;;;;;3.47;3.38;;;;;;;23.92;53.28;95901.22;4958952;28;20045;-55
2023/10/27 09:44:51;;;;;;;3.10;3.00;;;;;;;24.44;52.35;95892.66;4961496;28;20806;-65
2023/10/27 09:47:28;;;;;;;3.08;2.97;;;;;;;23.31;54.30;95846.28;4976928;28;20057;-55
2023/10/27 09:50:07;;;;;;;2.80;2.70;;;;;;;22.96;55.29;95803.66;4980908;28;20112;-57
2023/10/27 09:52:34;;;;;;;2.88;2.78;;;;;;;23.82;54.53;95873.00;4975218;28;20052;-65
2023/10/27 09:55:02;;;;;;;2.97;2.88;;;;;;;23.92;53.56;95891.47;4973113;28;21063;-56
2023/10/27 09:57:44;;;;;;;3.28;3.17;;;;;;;23.95;52.87;95816.16;4969803;28;20135;-64
2023/10/27 10:00:19;;;;;;;2.95;2.85;;;;;;;24.47;51.86;95846.38;4945808;28;21044;-64
2023/10/27 10:02:46;;;;;;;3.10;3.00;;;;;;;24.43;52.31;95840.16;4977616;28;20072;-58
2023/10/27 10:05:13;;;;;;;3.05;2.95;;;;;;;24.30;51.64;95802.09;4974473;28;20455;-56
2023/10/27 10:07:52;;;;;;;3.30;3.20;;;;;;;24.46;51.24;95804.41;4980257;28;20061;-55
2023/10/27 10:10:35;;;;;;;3.00;2.90;;;;;;;25.11;50.23;95827.28;4968050;28;20587;-64
2023/10/27 10:13:16;;;;;;;3.17;3.08;;;;;;;25.39;49.65;95815.56;4978715;28;20122;-55
2023/10/27 10:15:45;;;;;;;3.33;3.22;;;;;;;25.57;48.12;95812.41;4963937;28;20049;-55
2023/10/27 10:18:20;;;;;;;3.70;3.60;;;;;;;25.10;48.65;95808.72;4982109;28;20072;-63
2023/10/27 10:20:56;;;;;;;3.45;3.35;;;;;;;25.28;48.21;95836.78;4981925;28;20629;-63
2023/10/27 10:23:46;;;;;;;3.30;3.20;;;;;;;25.13;49.10;95790.72;4964627;28;20056;-55
2023/10/27 10:26:12;;;;;;;3.25;3.15;;;;;;;25.18;48.60;95753.16;4971726;28;20420;-63
2023/10/27 10:28:41;;;;;;;3.20;3.10;;;;;;;25.95;48.06;95783.66;4985457;28;20057;-56
2023/10/27 10:31:08;;;;;;;3.63;3.53;;;;;;;26.45;46.14;95773.50;4982322;28;20710;-64
2023/10/27 10:33:36;;;;;;;3.83;3.72;;;;;;;26.41;45.33;95728.28;4982676;28;20060;-64
2023/10/27 10:36:12;;;;;;;3.90;3.80;;;;;;;26.87;44.46;95759.34;4982546;28;20057;-64
2023/10/27 10:38:43;;;;;;;3.70;3.60;;;;;;;26.76;44.74;95759.28;4982190;28;20521;-56
2023/10/27 10:41:10;;;;;;;4.15;4.05;;;;;;;26.83;43.99;95753.13;4982059;28;20049;-64
2023/10/27 10:43:37;;;;;;;3.75;3.65;;;;;;;26.02;44.23;95649.84;4981391;28;20055;-69
2023/10/27 10:46:11;;;;;;;3.88;3.78;;;;;;;26.71;43.55;95717.41;4966182;28;20112;-69
2023/10/27 10:48:46;;;;;;;3.83;3.72;;;;;;;26.82;43.84;95720.31;4960052;28;20049;-60
2023/10/27 10:51:15;;;;;;;3.92;3.83;;;;;;;27.11;42.95;95765.41;4975256;28;20560;-68
2023/10/27 10:53:52;;;;;;;;;;;;;;;27.23;43.54;95741.41;4969116;28;20045;-65
2023/10/27 10:56:19;;;;;;;3.72;3.63;;;;;;;26.76;42.91;95674.03;4969285;28;20016;-55
2023/10/27 10:58:46;;;;;;;3.85;3.75;;;;;;;27.19;43.01;95728.75;4980470;28;20051;-56
2023/10/27 11:01:18;;;;;;;3.95;3.85;;;;;;;27.24;43.30;95740.13;4954741;28;20199;-67
2023/10/27 11:03:56;;;;;;;4.03;3.92;;;;;;;27.12;43.14;95740.59;4990354;28;20103;-60
2023/10/27 11:06:27;;;;;;;3.80;3.70;;;;;;;26.57;44.16;95752.44;4964712;28;20204;-57
2023/10/27 11:08:54;;;;;;;3.90;3.80;;;;;;;24.84;43.78;95436.75;4983248;28;20056;-59
2023/10/27 11:11:21;;;;;;;3.83;3.72;;;;;;;26.61;43.33;95753.75;5019751;28;20057;-55
2023/10/27 11:14:00;;;;;;;3.97;3.88;;;;;;;26.64;42.92;95771.84;5014061;28;20049;-64
2023/10/27 11:16:27;;;;;;;3.85;3.75;;;;;;;26.17;42.64;95670.31;5022631;28;20052;-62
2023/10/27 11:18:59;;;;;;;3.70;3.60;;;;;;;26.76;42.66;95753.63;5023290;28;20052;-57
2023/10/27 11:21:29;;;;;;;4.00;3.90;;;;;;;26.91;41.95;95756.25;5005943;28;20492;-56
2023/10/27 11:23:56;;;;;;;3.67;3.58;;;;;;;26.79;41.62;95758.28;5006635;28;20053;-57
2023/10/27 11:26:25;;;;;;;3.63;3.53;;;;;;;26.85;41.81;95758.28;5023544;28;20049;-67
2023/10/27 11:28:55;;;;;;;3.63;3.53;;;;;;;26.78;41.70;95762.38;5023874;28;20113;-56
2023/10/27 11:31:22;;;;;;;3.75;3.65;;;;;;;26.60;41.51;95757.09;5023851;28;20071;-55
2023/10/27 11:34:13;;;;;;;3.55;3.45;;;;;;;26.47;41.27;95766.06;5019419;28;20112;-56
2023/10/27 11:36:43;;;;;;;3.30;3.20;;;;;;;26.12;41.66;95761.91;5011199;28;20487;-68
2023/10/27 11:39:14;;;;;;;3.85;3.75;;;;;;;25.91;41.93;95768.91;5007451;28;20535;-56